sensor_id;sensor_type;location;lat;lon;timestamp;temperature;humidity
17092;DHT22;8661;45.700;4.880;2022-07-23T00:01:30;24.70;99.90
17092;DHT22;8661;45.700;4.880;2022-07-23T00:03:58;24.70;99.90
17092;DHT22;8661;45.700;4.880;2022-07-23T00:06:25;24.60;99.90
17092;DHT22;8661;45.700;4.880;2022-07-23T00:08:52;24.60;99.90
17092;DHT22;8661;45.700;4.880;2022-07-23T00:11:19;24.60;99.90
17092;DHT22;8661;45.700;4.880;2022-07-23T00:13:47;24.60;99.90
17092;DHT22;8661;45.700;4.880;2022-07-23T00:16:14;24.50;99.90
17092;DHT22;8661;45.700;4.880;2022-07-23T00:18:43;24.50;99.90
17092;DHT22;8661;45.700;4.880;2022-07-23T00:21:11;24.50;99.90
17092;DHT22;8661;45.700;4.880;2022-07-23T00:23:38;24.50;99.90
17092;DHT22;8661;45.700;4.880;2022-07-23T00:26:05;24.50;99.90
17092;DHT22;8661;45.700;4.880;2022-07-23T00:28:33;24.40;99.90
17092;DHT22;8661;45.700;4.880;2022-07-23T00:31:00;24.40;99.90
17092;DHT22;8661;45.700;4.880;2022-07-23T00:33:27;24.40;99.90
17092;DHT22;8661;45.700;4.880;2022-07-23T00:35:55;24.40;99.90
17092;DHT22;8661;45.700;4.880;2022-07-23T00:38:22;24.30;99.90
17092;DHT22;8661;45.700;4.880;2022-07-23T00:40:49;24.30;99.90
17092;DHT22;8661;45.700;4.880;2022-07-23T00:43:16;24.30;99.90
17092;DHT22;8661;45.700;4.880;2022-07-23T00:45:43;24.30;99.90
17092;DHT22;8661;45.700;4.880;2022-07-23T00:48:10;24.30;99.90
17092;DHT22;8661;45.700;4.880;2022-07-23T00:50:37;24.30;99.90
17092;DHT22;8661;45.700;4.880;2022-07-23T00:53:05;24.30;99.90
17092;DHT22;8661;45.700;4.880;2022-07-23T00:55:34;24.30;99.90
17092;DHT22;8661;45.700;4.880;2022-07-23T00:58:02;24.30;99.90
17092;DHT22;8661;45.700;4.880;2022-07-23T01:00:29;24.30;99.90
17092;DHT22;8661;45.700;4.880;2022-07-23T01:02:56;24.40;99.90
17092;DHT22;8661;45.700;4.880;2022-07-23T01:05:24;24.40;99.90
17092;DHT22;8661;45.700;4.880;2022-07-23T01:07:51;24.40;99.90
17092;DHT22;8661;45.700;4.880;2022-07-23T01:10:19;24.40;99.90
17092;DHT22;8661;45.700;4.880;2022-07-23T01:12:59;24.40;99.90
17092;DHT22;8661;45.700;4.880;2022-07-23T01:15:27;24.40;99.90
17092;DHT22;8661;45.700;4.880;2022-07-23T01:17:54;24.50;99.90
17092;DHT22;8661;45.700;4.880;2022-07-23T01:20:21;24.50;99.90
17092;DHT22;8661;45.700;4.880;2022-07-23T01:22:50;24.60;99.90
17092;DHT22;8661;45.700;4.880;2022-07-23T01:25:17;24.60;99.90
17092;DHT22;8661;45.700;4.880;2022-07-23T01:27:44;24.60;99.90
17092;DHT22;8661;45.700;4.880;2022-07-23T01:30:12;24.60;99.90
17092;DHT22;8661;45.700;4.880;2022-07-23T01:32:39;24.60;99.90
17092;DHT22;8661;45.700;4.880;2022-07-23T01:35:07;24.60;99.90
17092;DHT22;8661;45.700;4.880;2022-07-23T01:37:34;24.60;99.90
17092;DHT22;8661;45.700;4.880;2022-07-23T01:40:04;24.60;99.90
17092;DHT22;8661;45.700;4.880;2022-07-23T01:42:32;24.60;99.20
17092;DHT22;8661;45.700;4.880;2022-07-23T01:44:59;24.60;97.80
17092;DHT22;8661;45.700;4.880;2022-07-23T01:47:26;24.60;96.40
17092;DHT22;8661;45.700;4.880;2022-07-23T01:49:53;24.70;95.80
17092;DHT22;8661;45.700;4.880;2022-07-23T01:52:20;24.70;94.90
17092;DHT22;8661;45.700;4.880;2022-07-23T01:54:47;24.70;94.30
17092;DHT22;8661;45.700;4.880;2022-07-23T01:57:15;24.70;93.90
17092;DHT22;8661;45.700;4.880;2022-07-23T01:59:42;24.70;93.70
17092;DHT22;8661;45.700;4.880;2022-07-23T02:02:09;24.70;93.30
17092;DHT22;8661;45.700;4.880;2022-07-23T02:04:36;24.60;93.10
17092;DHT22;8661;45.700;4.880;2022-07-23T02:07:04;24.60;93.00
17092;DHT22;8661;45.700;4.880;2022-07-23T02:09:31;24.60;93.00
17092;DHT22;8661;45.700;4.880;2022-07-23T02:11:58;24.60;92.90
17092;DHT22;8661;45.700;4.880;2022-07-23T02:14:27;24.60;92.70
17092;DHT22;8661;45.700;4.880;2022-07-23T02:16:54;24.50;92.70
17092;DHT22;8661;45.700;4.880;2022-07-23T02:19:21;24.50;92.70
17092;DHT22;8661;45.700;4.880;2022-07-23T02:21:48;24.50;92.60
17092;DHT22;8661;45.700;4.880;2022-07-23T02:24:15;24.40;92.60
17092;DHT22;8661;45.700;4.880;2022-07-23T02:26:43;24.40;92.70
17092;DHT22;8661;45.700;4.880;2022-07-23T02:29:10;24.40;92.70
17092;DHT22;8661;45.700;4.880;2022-07-23T02:31:38;24.40;92.60
17092;DHT22;8661;45.700;4.880;2022-07-23T02:34:05;24.30;92.50
17092;DHT22;8661;45.700;4.880;2022-07-23T02:36:33;24.40;92.50
17092;DHT22;8661;45.700;4.880;2022-07-23T02:38:59;24.30;92.60
17092;DHT22;8661;45.700;4.880;2022-07-23T02:41:27;24.20;92.60
17092;DHT22;8661;45.700;4.880;2022-07-23T02:43:54;24.30;92.80
17092;DHT22;8661;45.700;4.880;2022-07-23T02:46:20;24.20;92.90
17092;DHT22;8661;45.700;4.880;2022-07-23T02:48:49;24.20;93.10
17092;DHT22;8661;45.700;4.880;2022-07-23T02:51:16;24.10;93.10
17092;DHT22;8661;45.700;4.880;2022-07-23T02:53:43;24.10;93.30
17092;DHT22;8661;45.700;4.880;2022-07-23T02:56:10;24.00;93.40
17092;DHT22;8661;45.700;4.880;2022-07-23T02:58:37;24.00;93.60
17092;DHT22;8661;45.700;4.880;2022-07-23T03:01:04;24.00;93.70
17092;DHT22;8661;45.700;4.880;2022-07-23T03:03:30;23.90;93.90
17092;DHT22;8661;45.700;4.880;2022-07-23T03:05:59;23.90;94.00
17092;DHT22;8661;45.700;4.880;2022-07-23T03:08:26;23.90;94.20
17092;DHT22;8661;45.700;4.880;2022-07-23T03:10:53;23.80;94.30
17092;DHT22;8661;45.700;4.880;2022-07-23T03:13:20;23.80;94.50
17092;DHT22;8661;45.700;4.880;2022-07-23T03:15:47;23.80;94.80
17092;DHT22;8661;45.700;4.880;2022-07-23T03:18:14;23.70;95.00
17092;DHT22;8661;45.700;4.880;2022-07-23T03:20:41;23.70;95.10
17092;DHT22;8661;45.700;4.880;2022-07-23T03:23:09;23.70;95.30
17092;DHT22;8661;45.700;4.880;2022-07-23T03:25:36;23.60;95.60
17092;DHT22;8661;45.700;4.880;2022-07-23T03:28:04;23.60;95.70
17092;DHT22;8661;45.700;4.880;2022-07-23T03:30:31;23.60;95.80
17092;DHT22;8661;45.700;4.880;2022-07-23T03:32:58;23.60;95.90
17092;DHT22;8661;45.700;4.880;2022-07-23T03:35:25;23.60;96.20
17092;DHT22;8661;45.700;4.880;2022-07-23T03:37:51;23.50;96.50
17092;DHT22;8661;45.700;4.880;2022-07-23T03:40:20;23.50;96.80
17092;DHT22;8661;45.700;4.880;2022-07-23T03:42:47;23.40;96.90
17092;DHT22;8661;45.700;4.880;2022-07-23T03:45:14;23.50;97.10
17092;DHT22;8661;45.700;4.880;2022-07-23T03:47:41;23.40;97.30
17092;DHT22;8661;45.700;4.880;2022-07-23T03:50:09;23.40;97.30
17092;DHT22;8661;45.700;4.880;2022-07-23T03:52:36;23.40;97.50
17092;DHT22;8661;45.700;4.880;2022-07-23T03:55:03;23.40;97.70
17092;DHT22;8661;45.700;4.880;2022-07-23T03:57:32;23.40;98.00
17092;DHT22;8661;45.700;4.880;2022-07-23T03:59:59;23.40;98.30
17092;DHT22;8661;45.700;4.880;2022-07-23T04:02:26;23.30;98.40
17092;DHT22;8661;45.700;4.880;2022-07-23T04:04:53;23.40;98.70
17092;DHT22;8661;45.700;4.880;2022-07-23T04:07:20;23.30;98.90
17092;DHT22;8661;45.700;4.880;2022-07-23T04:09:47;23.30;99.10
17092;DHT22;8661;45.700;4.880;2022-07-23T04:12:14;23.30;99.40
17092;DHT22;8661;45.700;4.880;2022-07-23T04:14:43;23.30;99.60
17092;DHT22;8661;45.700;4.880;2022-07-23T04:17:10;23.30;99.90
17092;DHT22;8661;45.700;4.880;2022-07-23T04:19:37;23.30;99.90
17092;DHT22;8661;45.700;4.880;2022-07-23T04:22:06;23.30;99.90
17092;DHT22;8661;45.700;4.880;2022-07-23T04:24:33;23.30;99.90
17092;DHT22;8661;45.700;4.880;2022-07-23T04:27:00;23.30;99.90
17092;DHT22;8661;45.700;4.880;2022-07-23T04:29:27;23.30;99.90
17092;DHT22;8661;45.700;4.880;2022-07-23T04:31:55;23.30;99.90
17092;DHT22;8661;45.700;4.880;2022-07-23T04:34:23;23.30;99.90
17092;DHT22;8661;45.700;4.880;2022-07-23T04:36:52;23.30;99.90
17092;DHT22;8661;45.700;4.880;2022-07-23T04:39:19;23.30;99.90
17092;DHT22;8661;45.700;4.880;2022-07-23T04:41:46;23.30;99.90
17092;DHT22;8661;45.700;4.880;2022-07-23T04:44:12;23.30;99.90
17092;DHT22;8661;45.700;4.880;2022-07-23T04:46:39;23.30;99.90
17092;DHT22;8661;45.700;4.880;2022-07-23T04:49:08;23.30;99.90
17092;DHT22;8661;45.700;4.880;2022-07-23T04:51:35;23.30;99.90
17092;DHT22;8661;45.700;4.880;2022-07-23T04:54:02;23.30;99.90
17092;DHT22;8661;45.700;4.880;2022-07-23T04:56:29;23.30;99.90
17092;DHT22;8661;45.700;4.880;2022-07-23T04:58:56;23.40;99.90
17092;DHT22;8661;45.700;4.880;2022-07-23T05:01:22;23.40;99.90
17092;DHT22;8661;45.700;4.880;2022-07-23T05:03:49;23.40;99.90
17092;DHT22;8661;45.700;4.880;2022-07-23T05:06:18;23.50;99.90
17092;DHT22;8661;45.700;4.880;2022-07-23T05:08:45;23.60;99.90
17092;DHT22;8661;45.700;4.880;2022-07-23T05:11:11;23.60;99.90
17092;DHT22;8661;45.700;4.880;2022-07-23T05:13:38;23.70;99.90
17092;DHT22;8661;45.700;4.880;2022-07-23T05:16:05;23.70;99.90
17092;DHT22;8661;45.700;4.880;2022-07-23T05:18:32;23.80;99.90
17092;DHT22;8661;45.700;4.880;2022-07-23T05:20:59;23.90;99.90
17092;DHT22;8661;45.700;4.880;2022-07-23T05:23:28;24.00;99.90
17092;DHT22;8661;45.700;4.880;2022-07-23T05:25:55;24.10;99.90
17092;DHT22;8661;45.700;4.880;2022-07-23T05:28:22;24.20;99.90
17092;DHT22;8661;45.700;4.880;2022-07-23T05:30:49;24.30;99.90
17092;DHT22;8661;45.700;4.880;2022-07-23T05:33:18;24.50;99.90
17092;DHT22;8661;45.700;4.880;2022-07-23T05:35:45;24.70;99.90
17092;DHT22;8661;45.700;4.880;2022-07-23T05:38:11;24.90;99.90
17092;DHT22;8661;45.700;4.880;2022-07-23T05:40:40;25.20;99.90
17092;DHT22;8661;45.700;4.880;2022-07-23T05:43:07;25.40;99.90
17092;DHT22;8661;45.700;4.880;2022-07-23T05:45:34;25.60;99.90
17092;DHT22;8661;45.700;4.880;2022-07-23T05:48:00;25.60;99.90
17092;DHT22;8661;45.700;4.880;2022-07-23T05:50:27;25.60;99.90
17092;DHT22;8661;45.700;4.880;2022-07-23T05:52:54;25.50;99.90
17092;DHT22;8661;45.700;4.880;2022-07-23T05:55:21;25.50;99.70
17092;DHT22;8661;45.700;4.880;2022-07-23T05:57:50;25.40;99.90
17092;DHT22;8661;45.700;4.880;2022-07-23T06:00:16;25.40;99.90
17092;DHT22;8661;45.700;4.880;2022-07-23T06:02:43;25.40;99.90
17092;DHT22;8661;45.700;4.880;2022-07-23T06:05:10;25.40;99.70
17092;DHT22;8661;45.700;4.880;2022-07-23T06:07:37;25.40;99.60
17092;DHT22;8661;45.700;4.880;2022-07-23T06:10:05;25.50;99.40
17092;DHT22;8661;45.700;4.880;2022-07-23T06:12:32;25.70;99.20
17092;DHT22;8661;45.700;4.880;2022-07-23T06:15:00;25.80;99.00
17092;DHT22;8661;45.700;4.880;2022-07-23T06:17:28;25.90;98.30
17092;DHT22;8661;45.700;4.880;2022-07-23T06:19:55;26.00;97.90
17092;DHT22;8661;45.700;4.880;2022-07-23T06:22:22;26.20;97.50
17092;DHT22;8661;45.700;4.880;2022-07-23T06:24:50;26.20;97.20
17092;DHT22;8661;45.700;4.880;2022-07-23T06:27:17;26.30;97.10
17092;DHT22;8661;45.700;4.880;2022-07-23T06:29:44;26.30;96.70
17092;DHT22;8661;45.700;4.880;2022-07-23T06:32:12;26.40;96.10
17092;DHT22;8661;45.700;4.880;2022-07-23T06:34:39;26.40;95.90
17092;DHT22;8661;45.700;4.880;2022-07-23T06:37:06;26.50;95.80
17092;DHT22;8661;45.700;4.880;2022-07-23T06:39:33;26.60;95.70
17092;DHT22;8661;45.700;4.880;2022-07-23T06:42:00;26.90;95.20
17092;DHT22;8661;45.700;4.880;2022-07-23T06:44:27;27.30;94.40
17092;DHT22;8661;45.700;4.880;2022-07-23T06:46:54;27.80;93.70
17092;DHT22;8661;45.700;4.880;2022-07-23T06:49:23;28.10;92.90
17092;DHT22;8661;45.700;4.880;2022-07-23T06:51:49;28.50;92.10
17092;DHT22;8661;45.700;4.880;2022-07-23T06:54:16;28.90;91.30
17092;DHT22;8661;45.700;4.880;2022-07-23T06:56:43;29.10;90.30
17092;DHT22;8661;45.700;4.880;2022-07-23T06:59:10;29.20;90.30
17092;DHT22;8661;45.700;4.880;2022-07-23T07:01:38;29.40;90.00
17092;DHT22;8661;45.700;4.880;2022-07-23T07:04:05;30.10;88.40
17092;DHT22;8661;45.700;4.880;2022-07-23T07:06:33;30.70;85.00
17092;DHT22;8661;45.700;4.880;2022-07-23T07:09:00;31.20;82.80
17092;DHT22;8661;45.700;4.880;2022-07-23T07:11:27;31.70;81.10
17092;DHT22;8661;45.700;4.880;2022-07-23T07:13:54;31.60;79.40
17092;DHT22;8661;45.700;4.880;2022-07-23T07:16:21;31.30;79.40
17092;DHT22;8661;45.700;4.880;2022-07-23T07:18:47;31.00;79.70
17092;DHT22;8661;45.700;4.880;2022-07-23T07:21:14;30.80;80.10
17092;DHT22;8661;45.700;4.880;2022-07-23T07:23:43;30.80;80.20
17092;DHT22;8661;45.700;4.880;2022-07-23T07:26:09;30.90;80.30
17092;DHT22;8661;45.700;4.880;2022-07-23T07:28:36;30.80;79.20
17092;DHT22;8661;45.700;4.880;2022-07-23T07:31:04;30.40;80.30
17092;DHT22;8661;45.700;4.880;2022-07-23T07:33:30;30.40;79.80
17092;DHT22;8661;45.700;4.880;2022-07-23T07:35:57;30.60;79.70
17092;DHT22;8661;45.700;4.880;2022-07-23T07:38:26;30.80;79.20
17092;DHT22;8661;45.700;4.880;2022-07-23T07:40:54;30.90;79.00
17092;DHT22;8661;45.700;4.880;2022-07-23T07:43:21;31.20;78.10
17092;DHT22;8661;45.700;4.880;2022-07-23T07:45:48;31.50;77.00
17092;DHT22;8661;45.700;4.880;2022-07-23T07:48:15;31.60;76.40
17092;DHT22;8661;45.700;4.880;2022-07-23T07:50:42;31.80;75.80
17092;DHT22;8661;45.700;4.880;2022-07-23T07:53:08;32.00;74.50
17092;DHT22;8661;45.700;4.880;2022-07-23T07:55:35;32.20;74.20
17092;DHT22;8661;45.700;4.880;2022-07-23T07:58:04;32.80;74.10
17092;DHT22;8661;45.700;4.880;2022-07-23T08:00:31;32.70;72.60
17092;DHT22;8661;45.700;4.880;2022-07-23T08:02:58;32.60;72.40
17092;DHT22;8661;45.700;4.880;2022-07-23T08:05:27;32.90;71.40
17092;DHT22;8661;45.700;4.880;2022-07-23T08:07:55;33.40;69.70
17092;DHT22;8661;45.700;4.880;2022-07-23T08:10:22;33.70;68.80
17092;DHT22;8661;45.700;4.880;2022-07-23T08:12:51;33.90;67.90
17092;DHT22;8661;45.700;4.880;2022-07-23T08:15:20;33.90;67.10
17092;DHT22;8661;45.700;4.880;2022-07-23T08:17:48;34.30;66.60
17092;DHT22;8661;45.700;4.880;2022-07-23T08:20:17;34.20;66.20
17092;DHT22;8661;45.700;4.880;2022-07-23T08:22:47;33.90;67.10
17092;DHT22;8661;45.700;4.880;2022-07-23T08:25:14;34.00;66.20
17092;DHT22;8661;45.700;4.880;2022-07-23T08:27:41;34.30;65.80
17092;DHT22;8661;45.700;4.880;2022-07-23T08:30:09;34.20;65.60
17092;DHT22;8661;45.700;4.880;2022-07-23T08:32:51;34.40;64.70
17092;DHT22;8661;45.700;4.880;2022-07-23T08:35:23;34.30;66.00
17092;DHT22;8661;45.700;4.880;2022-07-23T08:37:50;34.80;64.60
17092;DHT22;8661;45.700;4.880;2022-07-23T08:40:17;34.50;64.30
17092;DHT22;8661;45.700;4.880;2022-07-23T08:42:47;34.20;65.20
17092;DHT22;8661;45.700;4.880;2022-07-23T08:45:16;34.30;65.20
17092;DHT22;8661;45.700;4.880;2022-07-23T08:47:44;34.20;64.50
17092;DHT22;8661;45.700;4.880;2022-07-23T08:50:13;34.20;65.30
17092;DHT22;8661;45.700;4.880;2022-07-23T08:52:40;34.10;64.90
17092;DHT22;8661;45.700;4.880;2022-07-23T08:55:08;33.90;65.10
17092;DHT22;8661;45.700;4.880;2022-07-23T08:57:35;33.90;66.10
17092;DHT22;8661;45.700;4.880;2022-07-23T09:00:04;33.80;65.30
17092;DHT22;8661;45.700;4.880;2022-07-23T09:02:39;33.80;65.80
17092;DHT22;8661;45.700;4.880;2022-07-23T09:05:07;33.80;65.10
17092;DHT22;8661;45.700;4.880;2022-07-23T09:07:35;33.70;65.40
17092;DHT22;8661;45.700;4.880;2022-07-23T09:10:07;33.50;65.90
17092;DHT22;8661;45.700;4.880;2022-07-23T09:12:34;33.80;65.40
17092;DHT22;8661;45.700;4.880;2022-07-23T09:15:08;34.50;63.80
17092;DHT22;8661;45.700;4.880;2022-07-23T09:17:40;34.80;63.10
17092;DHT22;8661;45.700;4.880;2022-07-23T09:20:11;34.70;62.20
17092;DHT22;8661;45.700;4.880;2022-07-23T09:22:40;34.40;63.60
17092;DHT22;8661;45.700;4.880;2022-07-23T09:25:12;34.30;63.50
17092;DHT22;8661;45.700;4.880;2022-07-23T09:27:54;34.60;63.20
17092;DHT22;8661;45.700;4.880;2022-07-23T09:30:23;35.30;62.10
17092;DHT22;8661;45.700;4.880;2022-07-23T09:33:07;35.80;60.30
17092;DHT22;8661;45.700;4.880;2022-07-23T09:35:45;36.20;59.80
17092;DHT22;8661;45.700;4.880;2022-07-23T09:38:13;36.40;58.90
17092;DHT22;8661;45.700;4.880;2022-07-23T09:40:44;36.90;58.20
17092;DHT22;8661;45.700;4.880;2022-07-23T09:43:11;36.50;58.50
17092;DHT22;8661;45.700;4.880;2022-07-23T09:45:38;36.60;57.60
17092;DHT22;8661;45.700;4.880;2022-07-23T09:48:13;36.00;58.70
17092;DHT22;8661;45.700;4.880;2022-07-23T09:50:41;35.90;58.80
17092;DHT22;8661;45.700;4.880;2022-07-23T09:53:09;36.20;58.10
17092;DHT22;8661;45.700;4.880;2022-07-23T09:55:37;36.70;57.70
17092;DHT22;8661;45.700;4.880;2022-07-23T09:58:06;37.20;56.90
17092;DHT22;8661;45.700;4.880;2022-07-23T10:00:35;36.80;56.30
17092;DHT22;8661;45.700;4.880;2022-07-23T10:03:06;36.10;57.10
17092;DHT22;8661;45.700;4.880;2022-07-23T10:05:33;35.80;57.80
17092;DHT22;8661;45.700;4.880;2022-07-23T10:08:02;35.30;58.40
17092;DHT22;8661;45.700;4.880;2022-07-23T10:10:30;34.60;59.50
17092;DHT22;8661;45.700;4.880;2022-07-23T10:13:00;34.40;60.00
17092;DHT22;8661;45.700;4.880;2022-07-23T10:15:43;34.60;60.00
17092;DHT22;8661;45.700;4.880;2022-07-23T10:18:11;35.00;59.10
17092;DHT22;8661;45.700;4.880;2022-07-23T10:20:39;35.20;58.80
17092;DHT22;8661;45.700;4.880;2022-07-23T10:23:13;35.40;58.40
17092;DHT22;8661;45.700;4.880;2022-07-23T10:25:48;35.70;57.90
17092;DHT22;8661;45.700;4.880;2022-07-23T10:28:31;35.90;58.10
17092;DHT22;8661;45.700;4.880;2022-07-23T10:31:14;35.80;58.00
17092;DHT22;8661;45.700;4.880;2022-07-23T10:36:39;35.00;59.10
17092;DHT22;8661;45.700;4.880;2022-07-23T10:39:19;34.50;59.90
17092;DHT22;8661;45.700;4.880;2022-07-23T10:41:48;34.50;60.80
17092;DHT22;8661;45.700;4.880;2022-07-23T10:44:18;34.60;60.60
17092;DHT22;8661;45.700;4.880;2022-07-23T10:46:57;34.70;60.60
17092;DHT22;8661;45.700;4.880;2022-07-23T10:49:34;34.50;59.60
17092;DHT22;8661;45.700;4.880;2022-07-23T10:52:25;34.10;61.30
17092;DHT22;8661;45.700;4.880;2022-07-23T10:54:54;33.80;61.60
17092;DHT22;8661;45.700;4.880;2022-07-23T10:57:24;33.50;62.50
17092;DHT22;8661;45.700;4.880;2022-07-23T11:00:15;33.50;62.80
17092;DHT22;8661;45.700;4.880;2022-07-23T11:02:45;33.70;62.10
17092;DHT22;8661;45.700;4.880;2022-07-23T11:05:14;34.10;62.40
17092;DHT22;8661;45.700;4.880;2022-07-23T11:08:12;34.60;61.50
17092;DHT22;8661;45.700;4.880;2022-07-23T11:10:44;35.40;60.30
17092;DHT22;8661;45.700;4.880;2022-07-23T11:13:29;35.60;59.30
17092;DHT22;8661;45.700;4.880;2022-07-23T11:16:28;35.60;58.60
17092;DHT22;8661;45.700;4.880;2022-07-23T11:19:07;35.60;58.70
17092;DHT22;8661;45.700;4.880;2022-07-23T11:21:45;35.70;59.00
17092;DHT22;8661;45.700;4.880;2022-07-23T11:24:14;35.30;59.40
17092;DHT22;8661;45.700;4.880;2022-07-23T11:26:47;35.00;59.70
17092;DHT22;8661;45.700;4.880;2022-07-23T11:29:43;35.10;59.80
17092;DHT22;8661;45.700;4.880;2022-07-23T11:35:27;35.90;58.90
17092;DHT22;8661;45.700;4.880;2022-07-23T11:38:04;36.10;58.60
17092;DHT22;8661;45.700;4.880;2022-07-23T11:40:32;36.60;57.40
17092;DHT22;8661;45.700;4.880;2022-07-23T11:43:00;37.40;56.60
17092;DHT22;8661;45.700;4.880;2022-07-23T11:45:33;37.70;55.50
17092;DHT22;8661;45.700;4.880;2022-07-23T11:48:02;37.30;56.40
17092;DHT22;8661;45.700;4.880;2022-07-23T11:50:29;38.20;55.50
17092;DHT22;8661;45.700;4.880;2022-07-23T11:52:56;38.80;54.70
17092;DHT22;8661;45.700;4.880;2022-07-23T11:55:23;38.90;54.20
17092;DHT22;8661;45.700;4.880;2022-07-23T11:57:52;38.90;53.90
17092;DHT22;8661;45.700;4.880;2022-07-23T12:00:21;39.60;53.50
17092;DHT22;8661;45.700;4.880;2022-07-23T12:02:49;39.30;52.50
17092;DHT22;8661;45.700;4.880;2022-07-23T12:05:20;38.60;53.10
17092;DHT22;8661;45.700;4.880;2022-07-23T12:07:48;37.30;54.70
17092;DHT22;8661;45.700;4.880;2022-07-23T12:10:17;36.20;56.40
17092;DHT22;8661;45.700;4.880;2022-07-23T12:12:46;35.80;56.80
17092;DHT22;8661;45.700;4.880;2022-07-23T12:15:17;36.10;56.60
17092;DHT22;8661;45.700;4.880;2022-07-23T12:17:45;36.90;56.10
17092;DHT22;8661;45.700;4.880;2022-07-23T12:20:15;37.90;54.80
17092;DHT22;8661;45.700;4.880;2022-07-23T12:22:45;38.90;54.40
17092;DHT22;8661;45.700;4.880;2022-07-23T12:25:14;39.10;52.60
17092;DHT22;8661;45.700;4.880;2022-07-23T12:27:42;38.90;52.70
17092;DHT22;8661;45.700;4.880;2022-07-23T12:30:19;38.60;52.90
17092;DHT22;8661;45.700;4.880;2022-07-23T12:32:48;38.30;53.20
17092;DHT22;8661;45.700;4.880;2022-07-23T12:35:16;38.20;54.20
17092;DHT22;8661;45.700;4.880;2022-07-23T12:37:46;37.90;53.40
17092;DHT22;8661;45.700;4.880;2022-07-23T12:40:28;37.60;53.70
17092;DHT22;8661;45.700;4.880;2022-07-23T12:42:57;37.40;53.70
17092;DHT22;8661;45.700;4.880;2022-07-23T12:45:25;37.30;54.20
17092;DHT22;8661;45.700;4.880;2022-07-23T12:48:03;37.30;54.40
17092;DHT22;8661;45.700;4.880;2022-07-23T12:50:36;37.30;54.70
17092;DHT22;8661;45.700;4.880;2022-07-23T12:53:07;37.80;54.20
17092;DHT22;8661;45.700;4.880;2022-07-23T12:55:34;37.90;53.50
17092;DHT22;8661;45.700;4.880;2022-07-23T12:58:09;38.10;53.60
17092;DHT22;8661;45.700;4.880;2022-07-23T13:01:05;37.80;52.90
17092;DHT22;8661;45.700;4.880;2022-07-23T13:03:37;37.30;52.70
17092;DHT22;8661;45.700;4.880;2022-07-23T13:06:06;37.00;53.80
17092;DHT22;8661;45.700;4.880;2022-07-23T13:08:37;36.80;54.00
17092;DHT22;8661;45.700;4.880;2022-07-23T13:11:07;36.70;54.00
17092;DHT22;8661;45.700;4.880;2022-07-23T13:13:35;36.60;54.50
17092;DHT22;8661;45.700;4.880;2022-07-23T13:16:03;36.60;54.40
17092;DHT22;8661;45.700;4.880;2022-07-23T13:18:30;36.50;54.40
17092;DHT22;8661;45.700;4.880;2022-07-23T13:20:58;36.40;55.10
17092;DHT22;8661;45.700;4.880;2022-07-23T13:23:25;36.30;54.40
17092;DHT22;8661;45.700;4.880;2022-07-23T13:25:53;36.20;54.70
17092;DHT22;8661;45.700;4.880;2022-07-23T13:28:21;36.50;54.80
17092;DHT22;8661;45.700;4.880;2022-07-23T13:30:50;36.60;54.30
17092;DHT22;8661;45.700;4.880;2022-07-23T13:33:18;36.40;54.60
17092;DHT22;8661;45.700;4.880;2022-07-23T13:35:45;35.90;55.40
17092;DHT22;8661;45.700;4.880;2022-07-23T13:38:13;35.70;55.40
17092;DHT22;8661;45.700;4.880;2022-07-23T13:40:42;35.50;55.60
17092;DHT22;8661;45.700;4.880;2022-07-23T13:43:12;35.30;56.10
17092;DHT22;8661;45.700;4.880;2022-07-23T13:45:40;35.20;56.00
17092;DHT22;8661;45.700;4.880;2022-07-23T13:48:09;35.20;56.10
17092;DHT22;8661;45.700;4.880;2022-07-23T13:50:37;35.30;56.50
17092;DHT22;8661;45.700;4.880;2022-07-23T13:53:05;35.10;56.40
17092;DHT22;8661;45.700;4.880;2022-07-23T13:55:33;35.10;56.40
17092;DHT22;8661;45.700;4.880;2022-07-23T13:58:01;35.00;56.40
17092;DHT22;8661;45.700;4.880;2022-07-23T14:00:30;34.90;56.60
17092;DHT22;8661;45.700;4.880;2022-07-23T14:02:57;34.80;56.70
17092;DHT22;8661;45.700;4.880;2022-07-23T14:05:25;34.90;56.70
17092;DHT22;8661;45.700;4.880;2022-07-23T14:07:52;34.90;56.50
17092;DHT22;8661;45.700;4.880;2022-07-23T14:10:20;34.80;56.70
17092;DHT22;8661;45.700;4.880;2022-07-23T14:12:49;34.90;56.30
17092;DHT22;8661;45.700;4.880;2022-07-23T14:15:16;35.30;56.10
17092;DHT22;8661;45.700;4.880;2022-07-23T14:17:46;35.60;55.90
17092;DHT22;8661;45.700;4.880;2022-07-23T14:20:14;36.00;55.30
17092;DHT22;8661;45.700;4.880;2022-07-23T14:22:41;36.10;54.70
17092;DHT22;8661;45.700;4.880;2022-07-23T14:25:09;36.50;54.40
17092;DHT22;8661;45.700;4.880;2022-07-23T14:27:37;37.00;53.90
17092;DHT22;8661;45.700;4.880;2022-07-23T14:30:06;36.50;54.20
17092;DHT22;8661;45.700;4.880;2022-07-23T14:32:33;36.00;54.70
17092;DHT22;8661;45.700;4.880;2022-07-23T14:35:03;35.70;54.90
17092;DHT22;8661;45.700;4.880;2022-07-23T14:37:30;36.10;55.20
17092;DHT22;8661;45.700;4.880;2022-07-23T14:39:57;36.70;54.30
17092;DHT22;8661;45.700;4.880;2022-07-23T14:42:25;36.90;53.60
17092;DHT22;8661;45.700;4.880;2022-07-23T14:44:52;37.00;53.20
17092;DHT22;8661;45.700;4.880;2022-07-23T14:47:19;36.90;52.80
17092;DHT22;8661;45.700;4.880;2022-07-23T14:49:45;37.10;52.90
17092;DHT22;8661;45.700;4.880;2022-07-23T14:52:14;37.40;52.40
17092;DHT22;8661;45.700;4.880;2022-07-23T14:54:41;37.80;52.00
17092;DHT22;8661;45.700;4.880;2022-07-23T14:57:08;37.80;51.80
17092;DHT22;8661;45.700;4.880;2022-07-23T14:59:35;37.50;51.70
17092;DHT22;8661;45.700;4.880;2022-07-23T15:02:02;36.80;52.30
17092;DHT22;8661;45.700;4.880;2022-07-23T15:04:29;36.50;52.90
17092;DHT22;8661;45.700;4.880;2022-07-23T15:06:56;36.40;52.90
17092;DHT22;8661;45.700;4.880;2022-07-23T15:09:24;36.00;53.20
17092;DHT22;8661;45.700;4.880;2022-07-23T15:11:52;35.50;54.00
17092;DHT22;8661;45.700;4.880;2022-07-23T15:14:18;35.30;54.20
17092;DHT22;8661;45.700;4.880;2022-07-23T15:16:45;35.40;54.70
17092;DHT22;8661;45.700;4.880;2022-07-23T15:19:12;35.70;54.60
17092;DHT22;8661;45.700;4.880;2022-07-23T15:21:39;35.60;54.40
17092;DHT22;8661;45.700;4.880;2022-07-23T15:24:07;35.80;54.10
17092;DHT22;8661;45.700;4.880;2022-07-23T15:26:35;35.80;53.70
17092;DHT22;8661;45.700;4.880;2022-07-23T15:29:02;35.70;53.90
17092;DHT22;8661;45.700;4.880;2022-07-23T15:31:31;35.80;54.20
17092;DHT22;8661;45.700;4.880;2022-07-23T15:33:58;35.80;54.20
17092;DHT22;8661;45.700;4.880;2022-07-23T15:36:25;35.70;54.00
17092;DHT22;8661;45.700;4.880;2022-07-23T15:38:52;35.60;53.90
17092;DHT22;8661;45.700;4.880;2022-07-23T15:41:19;35.40;54.10
17092;DHT22;8661;45.700;4.880;2022-07-23T15:43:47;35.20;54.40
17092;DHT22;8661;45.700;4.880;2022-07-23T15:46:14;35.10;54.70
17092;DHT22;8661;45.700;4.880;2022-07-23T15:48:42;35.10;54.40
17092;DHT22;8661;45.700;4.880;2022-07-23T15:51:11;35.00;54.30
17092;DHT22;8661;45.700;4.880;2022-07-23T15:53:38;35.10;54.40
17092;DHT22;8661;45.700;4.880;2022-07-23T15:56:06;35.30;54.20
17092;DHT22;8661;45.700;4.880;2022-07-23T15:58:33;35.00;54.10
17092;DHT22;8661;45.700;4.880;2022-07-23T16:01:01;34.80;54.40